Terminal Aerodrome Forecast
Issued by NWS

Home | Current Version | Previous Version | Text Only | Print | Product List | Glossary On
Versions: 1 2 3 4 5 6 7 8 9 10 11 12 13 14 15 16 17 18 19
000
FTUS46 KOTX 222320
TAFSFF
TAF
KSFF 222320Z 2300/2324 26019G22KT P6SM SCT040 BKN060 BKN200
     FM230200 25010G20KT P6SM SCT200
     FM230600 27005KT P6SM SKC
     FM231400 VRB03KT 5SM BR VCFG BKN008
     FM231900 33002KT P6SM FEW008=

USA.gov is the U.S. government's official web portal to all federal, state and local government web resources and services.